Time;durP1;ratioP1;P1;durP2;ratioP2;P2;SDS_P1;SDS_P2;PMS_P1;PMS_P2;Temp;Humidity;BMP_temperature;BMP_pressure;BME280_temperature;BME280_humidity;BME280_pressure;Samples;Min_cycle;Max_cycle;Signal;HPM_P1;HPM_P2
2022/05/05 00:00:14;;;;;;;8.98;3.83;;;13.90;87.90;;;;;;5010822;28;20030;-68
2022/05/05 00:02:40;;;;;;;10.35;3.65;;;13.90;86.80;;;;;;5010914;28;20171;-68
2022/05/05 00:05:07;;;;;;;9.25;3.70;;;13.90;85.40;;;;;;5010894;28;20153;-68
2022/05/05 00:07:33;;;;;;;8.95;3.95;;;14.00;84.40;;;;;;4993183;28;20042;-68
2022/05/05 00:09:58;;;;;;;7.78;3.58;;;14.00;84.10;;;;;;5010715;28;20030;-69
2022/05/05 00:15:09;;;;;;;8.73;3.15;;;14.00;84.40;;;;;;5010708;28;20080;-68
2022/05/05 00:17:35;;;;;;;6.78;3.63;;;14.00;84.50;;;;;;5010419;28;20103;-68
2022/05/05 00:20:01;;;;;;;8.23;3.20;;;14.10;84.60;;;;;;5010622;28;20078;-68
2022/05/05 00:22:27;;;;;;;10.15;3.50;;;14.10;84.80;;;;;;5010575;28;20033;-68
2022/05/05 00:24:53;;;;;;;8.48;3.67;;;14.00;84.90;;;;;;5010539;28;20033;-68
2022/05/05 00:27:19;;;;;;;10.13;3.28;;;14.10;85.10;;;;;;5010345;28;20076;-68
2022/05/05 00:29:45;;;;;;;6.90;3.10;;;14.10;84.50;;;;;;4992923;28;20034;-67
2022/05/05 00:32:11;;;;;;;10.40;3.33;;;14.10;84.20;;;;;;5010875;28;20379;-68
2022/05/05 00:34:37;;;;;;;7.00;3.10;;;14.10;83.90;;;;;;4992973;28;20030;-68
2022/05/05 00:37:04;;;;;;;10.57;3.88;;;14.10;83.60;;;;;;5010447;28;20030;-67
2022/05/05 00:39:30;;;;;;;6.90;3.00;;;14.10;83.20;;;;;;5011509;28;20429;-68
2022/05/05 00:42:00;;;;;;;8.35;3.38;;;14.10;82.70;;;;;;5014378;28;20080;-68
2022/05/05 00:44:26;;;;;;;9.13;3.58;;;14.10;83.20;;;;;;5013826;28;20121;-68
2022/05/05 00:46:52;;;;;;;8.93;3.45;;;14.10;83.30;;;;;;4995974;28;20145;-68
2022/05/05 00:49:19;;;;;;;6.57;3.25;;;14.10;83.40;;;;;;5013744;28;20098;-68
2022/05/05 00:51:45;;;;;;;9.98;3.40;;;14.10;83.60;;;;;;5013737;28;20057;-68
2022/05/05 00:54:11;;;;;;;9.40;3.78;;;14.10;84.20;;;;;;5013765;28;20149;-68
2022/05/05 00:56:38;;;;;;;9.18;3.70;;;14.00;84.80;;;;;;4995878;28;20026;-68
2022/05/05 00:59:05;;;;;;;7.70;3.00;;;14.10;85.00;;;;;;5013529;28;20034;-68
2022/05/05 01:01:34;;;;;;;7.38;3.53;;;14.10;84.90;;;;;;5013815;28;20038;-68
2022/05/05 01:04:01;;;;;;;6.97;3.35;;;14.10;83.80;;;;;;5013501;28;20037;-68
2022/05/05 01:06:28;;;;;;;9.60;3.30;;;14.10;83.40;;;;;;5013489;28;20033;-68
2022/05/05 01:08:54;;;;;;;11.35;4.50;;;14.00;83.80;;;;;;5013343;28;20038;-68
2022/05/05 01:11:20;;;;;;;7.70;2.97;;;14.10;83.90;;;;;;5013487;28;20447;-68
2022/05/05 01:13:46;;;;;;;9.25;3.40;;;14.00;83.80;;;;;;5013379;28;20434;-68
2022/05/05 01:16:12;;;;;;;8.20;3.17;;;14.10;83.90;;;;;;5013478;28;20072;-68
2022/05/05 01:18:38;;;;;;;9.23;3.78;;;14.10;83.60;;;;;;5013084;28;20372;-68
2022/05/05 01:21:05;;;;;;;7.95;3.40;;;14.10;83.70;;;;;;5013205;28;20027;-69
2022/05/05 01:23:30;;;;;;;10.20;3.30;;;14.00;84.10;;;;;;5013022;28;20404;-69
2022/05/05 01:28:45;;;;;;;9.48;4.30;;;14.00;84.70;;;;;;5013026;28;20026;-68
2022/05/05 01:31:12;;;;;;;9.02;3.63;;;14.00;85.00;;;;;;5013110;28;20109;-69
2022/05/05 01:33:38;;;;;;;11.73;3.67;;;14.00;85.40;;;;;;5012853;28;20307;-68
2022/05/05 01:36:04;;;;;;;7.85;3.60;;;14.00;85.90;;;;;;5012870;28;20084;-69
2022/05/05 01:38:40;;;;;;;10.07;3.83;;;13.90;86.50;;;;;;5012739;28;20509;-69
2022/05/05 01:41:11;;;;;;;7.95;3.20;;;13.90;87.20;;;;;;5012976;28;20029;-69
2022/05/05 01:43:38;;;;;;;9.18;3.65;;;13.90;87.80;;;;;;5012555;28;20075;-68
2022/05/05 01:46:05;;;;;;;8.57;3.40;;;13.80;88.10;;;;;;5012651;28;20034;-68
2022/05/05 01:48:32;;;;;;;11.13;3.60;;;13.80;88.20;;;;;;5012332;28;20026;-68
2022/05/05 01:50:59;;;;;;;11.18;3.70;;;13.80;89.00;;;;;;5012248;28;20406;-68
2022/05/05 01:53:25;;;;;;;8.32;3.63;;;13.70;88.50;;;;;;5012460;28;20041;-68
2022/05/05 01:55:51;;;;;;;8.38;3.95;;;13.70;88.70;;;;;;5012899;28;20475;-69
2022/05/05 01:58:17;;;;;;;10.48;3.83;;;13.70;88.80;;;;;;5012239;28;20038;-68
2022/05/05 02:00:43;;;;;;;10.85;3.80;;;13.70;88.70;;;;;;4994947;28;20116;-68
2022/05/05 02:03:16;;;;;;;10.70;3.58;;;13.70;88.90;;;;;;5012258;28;20049;-68
2022/05/05 02:05:43;;;;;;;11.13;3.78;;;13.60;88.70;;;;;;4994760;28;20033;-68
2022/05/05 02:08:11;;;;;;;10.02;3.78;;;13.60;88.70;;;;;;4994765;28;20076;-68
2022/05/05 02:10:37;;;;;;;10.05;3.40;;;13.60;88.90;;;;;;5012277;28;20391;-69
2022/05/05 02:13:05;;;;;;;8.43;3.45;;;13.60;88.80;;;;;;5012183;28;20022;-69
2022/05/05 02:15:32;;;;;;;9.50;3.95;;;13.70;88.50;;;;;;5012130;28;20041;-68
2022/05/05 02:18:09;;;;;;;9.77;4.00;;;13.70;87.40;;;;;;4994268;28;20034;-68
2022/05/05 02:20:37;;;;;;;11.27;4.03;;;13.70;87.30;;;;;;5012098;28;20044;-68
2022/05/05 02:23:03;;;;;;;10.93;3.45;;;13.70;87.30;;;;;;5012000;28;20034;-68
2022/05/05 02:25:30;;;;;;;12.73;3.80;;;13.70;87.40;;;;;;5011901;28;20056;-68
2022/05/05 02:27:56;;;;;;;10.65;4.28;;;13.70;87.40;;;;;;5011760;28;20422;-68
2022/05/05 02:30:23;;;;;;;11.48;3.55;;;13.70;87.10;;;;;;5012152;28;20105;-69
2022/05/05 02:32:50;;;;;;;10.68;4.45;;;13.60;87.40;;;;;;5011704;28;20057;-68
2022/05/05 02:35:18;;;;;;;11.00;3.83;;;13.60;87.20;;;;;;4994255;28;20065;-68
2022/05/05 02:40:29;;;;;;;10.88;3.80;;;13.60;87.40;;;;;;5011771;28;20088;-68
2022/05/05 02:42:56;;;;;;;11.90;3.85;;;13.50;88.30;;;;;;5011497;28;20100;-68
2022/05/05 02:45:23;;;;;;;10.75;4.30;;;13.50;89.30;;;;;;5011502;28;20051;-68
2022/05/05 02:47:49;;;;;;;9.10;4.00;;;13.40;90.10;;;;;;5011477;28;20479;-69
2022/05/05 02:50:16;;;;;;;11.43;3.95;;;13.40;90.40;;;;;;5011665;28;20550;-68
2022/05/05 02:52:42;;;;;;;8.45;4.00;;;13.30;90.70;;;;;;5011566;28;20498;-68
2022/05/05 02:55:08;;;;;;;13.52;4.75;;;13.40;90.80;;;;;;5011465;28;20026;-69
2022/05/05 02:57:34;;;;;;;12.55;4.10;;;13.20;91.00;;;;;;5011439;28;20184;-69
2022/05/05 03:00:01;;;;;;;15.93;4.20;;;13.20;91.10;;;;;;5011465;28;20498;-69
2022/05/05 03:02:27;;;;;;;11.23;4.25;;;13.10;91.30;;;;;;4992988;28;20033;-68
2022/05/05 03:04:53;;;;;;;11.38;4.30;;;13.10;91.30;;;;;;5011291;28;20036;-68
2022/05/05 03:07:18;;;;;;;10.48;3.92;;;13.00;91.50;;;;;;5011186;28;20036;-69
2022/05/05 03:09:45;;;;;;;8.95;3.97;;;12.90;91.70;;;;;;5011372;28;20061;-68
2022/05/05 03:12:11;;;;;;;12.15;4.45;;;12.90;91.80;;;;;;5011173;28;20076;-68
2022/05/05 03:14:38;;;;;;;11.05;4.63;;;12.90;91.80;;;;;;4993645;28;20044;-68
2022/05/05 03:17:04;;;;;;;10.55;4.25;;;12.80;91.90;;;;;;5011077;28;20073;-68
2022/05/05 03:19:30;;;;;;;11.02;4.38;;;12.80;92.00;;;;;;5011251;28;20037;-68
2022/05/05 03:21:57;;;;;;;12.13;4.18;;;12.70;92.00;;;;;;5011038;28;20037;-68
2022/05/05 03:24:23;;;;;;;9.97;4.10;;;12.60;92.10;;;;;;5011002;28;20026;-68
2022/05/05 03:26:49;;;;;;;9.60;4.57;;;12.60;92.30;;;;;;5010874;28;20034;-68
2022/05/05 03:29:15;;;;;;;10.70;4.53;;;12.60;92.40;;;;;;5011000;28;20457;-69
2022/05/05 03:31:41;;;;;;;8.53;4.30;;;12.60;92.50;;;;;;5011119;28;20033;-68
2022/05/05 03:34:07;;;;;;;11.83;4.37;;;12.50;92.50;;;;;;5011126;28;20045;-68
2022/05/05 03:36:33;;;;;;;8.90;4.20;;;12.50;92.60;;;;;;5010755;28;20494;-69
2022/05/05 03:38:59;;;;;;;11.33;4.40;;;12.50;92.60;;;;;;5011000;28;20038;-68
2022/05/05 03:41:26;;;;;;;9.20;4.20;;;12.50;92.70;;;;;;5010965;28;20037;-68
2022/05/05 03:43:52;;;;;;;8.30;4.43;;;12.50;92.60;;;;;;5010930;28;20087;-68
2022/05/05 03:46:18;;;;;;;14.37;4.23;;;12.50;92.50;;;;;;5010685;28;20026;-68
2022/05/05 03:48:45;;;;;;;9.07;4.53;;;12.50;92.50;;;;;;5010922;28;20479;-68
2022/05/05 03:51:11;;;;;;;12.03;4.57;;;12.50;92.50;;;;;;5010808;28;20026;-68
2022/05/05 03:53:37;;;;;;;9.67;4.70;;;12.40;92.50;;;;;;5010880;28;20038;-68
2022/05/05 03:56:04;;;;;;;10.87;5.33;;;12.40;92.60;;;;;;5010827;28;20509;-68
2022/05/05 03:58:31;;;;;;;9.30;4.80;;;12.30;92.60;;;;;;5010717;28;20454;-68
2022/05/05 04:00:57;;;;;;;11.33;4.33;;;12.30;92.70;;;;;;5010873;28;20029;-68
2022/05/05 04:03:31;;;;;;;11.40;5.40;;;12.30;92.70;;;;;;5010762;28;20041;-68
2022/05/05 04:06:05;;;;;;;9.63;4.63;;;12.20;92.80;;;;;;5010683;28;20030;-68
2022/05/05 04:08:32;;;;;;;10.33;4.67;;;12.20;92.70;;;;;;5010711;28;20489;-68
2022/05/05 04:10:59;;;;;;;11.53;4.70;;;12.30;92.70;;;;;;5010651;28;20053;-68
2022/05/05 04:13:28;;;;;;;13.73;5.27;;;12.20;92.60;;;;;;4994168;28;20021;-68
2022/05/05 04:15:54;;;;;;;12.67;4.90;;;12.20;92.70;;;;;;5014351;28;20549;-68
2022/05/05 04:18:20;;;;;;;12.77;5.20;;;12.10;92.80;;;;;;5013972;28;20033;-69
2022/05/05 04:20:49;;;;;;;9.60;4.67;;;12.20;92.90;;;;;;4996760;28;20034;-68
2022/05/05 04:23:15;;;;;;;12.45;5.35;;;12.20;93.00;;;;;;5014331;28;20041;-68
2022/05/05 04:25:42;;;;;;;13.23;4.77;;;12.10;93.00;;;;;;5014175;28;20107;-68
2022/05/05 04:28:10;;;;;;;16.00;5.30;;;12.20;92.90;;;;;;5013922;28;20022;-68
2022/05/05 04:30:38;;;;;;;10.47;4.90;;;12.20;93.10;;;;;;5014298;28;20186;-68
2022/05/05 04:33:04;;;;;;;15.20;5.40;;;12.20;93.10;;;;;;5014039;28;20113;-68
2022/05/05 04:35:30;;;;;;;12.13;5.10;;;12.20;93.10;;;;;;5014090;28;20053;-69
2022/05/05 04:37:57;;;;;;;14.30;5.00;;;12.20;93.10;;;;;;5013842;28;20085;-68
2022/05/05 04:40:23;;;;;;;10.33;5.03;;;12.10;93.30;;;;;;4996245;28;20032;-68
2022/05/05 04:42:49;;;;;;;12.20;5.00;;;12.10;93.20;;;;;;5014243;28;20117;-68
2022/05/05 04:45:15;;;;;;;12.80;5.33;;;12.10;93.40;;;;;;5013703;28;20049;-68
2022/05/05 04:47:43;;;;;;;12.50;4.87;;;12.00;93.40;;;;;;5013604;28;20030;-68
2022/05/05 04:50:09;;;;;;;14.40;5.37;;;12.10;93.60;;;;;;5014038;28;20105;-68
2022/05/05 04:52:35;;;;;;;10.00;5.33;;;12.00;93.60;;;;;;5013873;28;20028;-68
2022/05/05 04:55:01;;;;;;;11.77;5.37;;;12.00;93.70;;;;;;5014093;28;20045;-68
2022/05/05 04:57:27;;;;;;;12.33;5.30;;;12.00;93.80;;;;;;5013426;28;20117;-68
2022/05/05 04:59:53;;;;;;;13.93;5.50;;;12.00;93.80;;;;;;4995932;28;20084;-68
2022/05/05 05:02:19;;;;;;;12.67;5.37;;;12.00;93.90;;;;;;5013508;28;20049;-68
2022/05/05 05:04:45;;;;;;;14.00;5.40;;;12.00;93.90;;;;;;5013755;28;20088;-68
2022/05/05 05:07:11;;;;;;;12.67;5.97;;;12.00;93.90;;;;;;4995784;28;20121;-68
2022/05/05 05:09:38;;;;;;;14.90;5.70;;;12.00;94.00;;;;;;5013498;28;20057;-68
2022/05/05 05:12:04;;;;;;;10.43;5.13;;;12.00;94.10;;;;;;5013345;28;20041;-68
2022/05/05 05:14:30;;;;;;;10.30;5.33;;;12.10;93.90;;;;;;4995922;28;20223;-68
2022/05/05 05:16:56;;;;;;;11.07;4.93;;;12.20;93.90;;;;;;5013169;28;20483;-68
2022/05/05 05:19:22;;;;;;;11.53;5.93;;;12.20;93.80;;;;;;5013308;28;20058;-68
2022/05/05 05:21:48;;;;;;;15.83;6.20;;;12.20;94.00;;;;;;5013209;28;20030;-68
2022/05/05 05:24:14;;;;;;;15.97;5.97;;;12.20;94.10;;;;;;5012926;28;20030;-68
2022/05/05 05:26:40;;;;;;;12.63;5.50;;;12.30;94.10;;;;;;5012158;28;20092;-68
2022/05/05 05:29:06;;;;;;;15.23;5.73;;;12.30;94.20;;;;;;5013118;28;20034;-68
2022/05/05 05:31:32;;;;;;;13.37;5.93;;;12.40;94.30;;;;;;5013008;28;20597;-68
2022/05/05 05:33:59;;;;;;;17.63;6.87;;;12.40;94.30;;;;;;5013071;28;20045;-68
2022/05/05 05:36:25;;;;;;;18.53;5.87;;;12.40;94.30;;;;;;5012976;28;20129;-68
2022/05/05 05:38:51;;;;;;;17.27;7.30;;;12.40;94.20;;;;;;5012753;28;20084;-68
2022/05/05 05:41:17;;;;;;;16.03;6.07;;;12.50;93.90;;;;;;5012874;28;20034;-68
2022/05/05 05:43:43;;;;;;;15.37;5.87;;;12.50;93.80;;;;;;5012507;28;20044;-69
2022/05/05 05:46:09;;;;;;;14.63;6.60;;;12.60;93.70;;;;;;5027400;23;20352;-65
2022/05/05 05:48:38;;;;;;;16.40;6.53;;;12.60;93.50;;;;;;5012556;28;20482;-64
2022/05/05 05:51:08;;;;;;;17.17;7.57;;;12.70;93.50;;;;;;5013073;28;20029;-65
2022/05/05 05:53:33;;;;;;;20.10;6.50;;;12.70;93.40;;;;;;5012756;28;20331;-65
2022/05/05 05:55:59;;;;;;;14.77;7.23;;;12.80;93.30;;;;;;5012669;28;20467;-65
2022/05/05 05:58:25;;;;;;;15.53;6.13;;;12.80;93.10;;;;;;5012470;28;20562;-65
2022/05/05 06:00:51;;;;;;;15.57;6.50;;;12.80;93.10;;;;;;5012468;28;20060;-64
2022/05/05 06:06:03;;;;;;;14.67;6.60;;;12.90;93.20;;;;;;5012563;28;20037;-66
2022/05/05 06:08:30;;;;;;;19.67;7.13;;;13.00;93.40;;;;;;5012228;28;20117;-65
2022/05/05 06:10:56;;;;;;;15.93;6.57;;;13.00;93.30;;;;;;4994784;28;20045;-65
2022/05/05 06:13:23;;;;;;;17.13;6.67;;;13.00;93.30;;;;;;5012409;28;20494;-66
2022/05/05 06:15:49;;;;;;;11.90;6.57;;;13.10;93.20;;;;;;5012787;28;20045;-66
2022/05/05 06:18:15;;;;;;;17.17;8.03;;;13.10;93.00;;;;;;5012217;28;20029;-66
2022/05/05 06:20:41;;;;;;;12.93;6.75;;;13.20;92.90;;;;;;5012242;28;20521;-66
2022/05/05 06:23:07;;;;;;;18.38;8.00;;;13.30;92.70;;;;;;5012063;28;20056;-65
2022/05/05 06:25:33;;;;;;;17.38;7.70;;;13.40;92.60;;;;;;5012002;28;20379;-66
2022/05/05 06:27:58;;;;;;;16.33;6.87;;;13.40;92.60;;;;;;5011999;28;20121;-66
2022/05/05 06:30:24;;;;;;;16.00;7.43;;;13.50;92.40;;;;;;5012144;28;20284;-65
2022/05/05 06:32:50;;;;;;;25.20;7.32;;;13.50;92.40;;;;;;5011859;28;20088;-65
2022/05/05 06:35:17;;;;;;;17.17;7.20;;;13.50;92.30;;;;;;5012009;28;20038;-66
2022/05/05 06:37:43;;;;;;;14.43;6.90;;;13.50;92.20;;;;;;4994167;28;20426;-66
2022/05/05 06:40:09;;;;;;;14.63;6.90;;;13.50;92.30;;;;;;5011833;28;20038;-66
2022/05/05 06:42:36;;;;;;;18.25;7.57;;;13.60;92.30;;;;;;5011924;28;20057;-65
2022/05/05 06:45:03;;;;;;;20.13;7.95;;;13.60;92.30;;;;;;5011793;28;20445;-65
2022/05/05 06:47:29;;;;;;;18.33;7.72;;;13.70;92.30;;;;;;5011544;28;20038;-65
2022/05/05 06:49:55;;;;;;;20.33;8.35;;;13.70;92.20;;;;;;5011794;28;20117;-65
2022/05/05 06:52:21;;;;;;;25.10;8.48;;;13.80;92.00;;;;;;5011427;28;20030;-65
2022/05/05 06:54:47;;;;;;;19.35;7.90;;;13.80;92.00;;;;;;5011464;28;20490;-65
2022/05/05 06:57:14;;;;;;;23.30;9.45;;;13.90;91.80;;;;;;5011247;28;20030;-65
2022/05/05 06:59:40;;;;;;;15.40;7.28;;;14.00;91.70;;;;;;5011562;28;20037;-65
2022/05/05 07:02:06;;;;;;;20.10;7.55;;;14.00;91.80;;;;;;5011442;28;20034;-65
2022/05/05 07:07:20;;;;;;;15.25;6.82;;;14.10;89.80;;;;;;5011143;28;20500;-65
2022/05/05 07:12:32;;;;;;;20.33;7.72;;;14.20;89.40;;;;;;5011395;28;20103;-65
2022/05/05 07:14:58;;;;;;;18.90;7.78;;;14.20;89.00;;;;;;5011390;28;20505;-65
2022/05/05 07:17:26;;;;;;;16.45;7.30;;;14.20;89.20;;;;;;5011098;28;20509;-66
2022/05/05 07:19:52;;;;;;;15.68;7.55;;;14.30;89.40;;;;;;4993620;28;20169;-66
2022/05/05 07:22:19;;;;;;;17.83;7.20;;;14.30;90.50;;;;;;5011368;28;20030;-66
2022/05/05 07:24:46;;;;;;;20.05;8.18;;;14.40;91.10;;;;;;4993482;28;20091;-66
2022/05/05 07:27:13;;;;;;;20.83;8.88;;;14.40;91.70;;;;;;4993605;28;20029;-66
2022/05/05 07:29:40;;;;;;;20.20;8.63;;;14.50;91.70;;;;;;5011154;28;20022;-66
2022/05/05 07:32:06;;;;;;;15.07;7.18;;;14.50;91.70;;;;;;5011082;28;20041;-66
2022/05/05 07:34:34;;;;;;;13.77;7.63;;;14.60;91.60;;;;;;5010985;28;20044;-67
2022/05/05 07:37:01;;;;;;;17.33;8.13;;;14.60;91.70;;;;;;5011027;28;20034;-66
2022/05/05 07:39:27;;;;;;;15.27;7.60;;;14.50;91.80;;;;;;5011158;28;20073;-67
2022/05/05 07:41:53;;;;;;;17.05;7.53;;;14.50;91.60;;;;;;5011157;28;20065;-66
2022/05/05 07:44:19;;;;;;;16.20;7.70;;;14.60;91.50;;;;;;5011093;28;20462;-66
2022/05/05 07:46:45;;;;;;;16.77;7.43;;;14.60;91.20;;;;;;5010807;28;20034;-66
2022/05/05 07:49:11;;;;;;;13.90;6.70;;;14.70;90.70;;;;;;5013500;28;20026;-66
2022/05/05 07:51:37;;;;;;;16.80;6.93;;;14.70;90.60;;;;;;5014869;28;20030;-65
2022/05/05 07:56:51;;;;;;;15.40;6.63;;;14.70;90.40;;;;;;5014785;28;20088;-65
2022/05/05 07:59:19;;;;;;;18.70;6.40;;;14.70;90.00;;;;;;4997303;28;20048;-66
2022/05/05 08:01:45;;;;;;;14.15;6.72;;;14.80;89.50;;;;;;4997487;28;20033;-66
2022/05/05 08:04:11;;;;;;;18.60;6.97;;;14.80;89.70;;;;;;5014785;28;20026;-66
2022/05/05 08:06:37;;;;;;;17.55;6.00;;;14.80;89.90;;;;;;5014663;28;20026;-66
2022/05/05 08:09:03;;;;;;;11.00;5.13;;;14.80;86.60;;;;;;5014759;28;20040;-65
2022/05/05 08:11:30;;;;;;;11.25;5.10;;;14.80;85.30;;;;;;5014631;28;20041;-65
2022/05/05 08:13:56;;;;;;;13.00;4.32;;;14.80;83.10;;;;;;5014592;28;20522;-66
2022/05/05 08:16:22;;;;;;;10.90;4.28;;;14.80;82.80;;;;;;4997086;28;20037;-66
2022/05/05 08:18:49;;;;;;;9.38;4.63;;;14.80;81.60;;;;;;5014261;28;20026;-65
2022/05/05 08:21:15;;;;;;;9.55;4.18;;;14.80;79.50;;;;;;4997098;28;20110;-65
2022/05/05 08:23:41;;;;;;;8.45;3.40;;;14.80;79.50;;;;;;5014355;28;20367;-65
2022/05/05 08:28:52;;;;;;;13.68;5.50;;;14.80;79.50;;;;;;5014296;28;20030;-65
2022/05/05 08:31:18;;;;;;;15.18;6.07;;;14.80;79.90;;;;;;5014271;28;20106;-66
2022/05/05 08:33:44;;;;;;;13.02;5.95;;;14.90;80.00;;;;;;5014493;28;20030;-66
2022/05/05 08:36:11;;;;;;;12.23;5.10;;;14.80;79.40;;;;;;5014321;28;20026;-66
2022/05/05 08:38:37;;;;;;;12.02;4.72;;;14.80;79.90;;;;;;5014360;28;20036;-66
2022/05/05 08:41:03;;;;;;;8.27;4.32;;;14.80;80.00;;;;;;5014550;28;20052;-66
2022/05/05 08:43:29;;;;;;;11.52;5.10;;;14.90;80.70;;;;;;5014130;28;20410;-66
2022/05/05 08:45:59;;;;;;;19.75;8.48;;;14.90;81.10;;;;;;5013891;28;20033;-65
2022/05/05 08:48:27;;;;;;;19.55;8.43;;;14.90;81.30;;;;;;4996261;28;20081;-66
2022/05/05 08:50:56;;;;;;;14.60;7.72;;;14.90;81.30;;;;;;5013965;28;20108;-65
2022/05/05 08:53:29;;;;;;;20.15;8.88;;;15.00;81.80;;;;;;5013640;28;20165;-65
2022/05/05 08:55:55;;;;;;;19.73;9.27;;;15.00;82.30;;;;;;5013821;28;20041;-65
2022/05/05 08:58:22;;;;;;;17.17;8.23;;;15.10;83.30;;;;;;4996227;28;20398;-66
2022/05/05 09:00:57;;;;;;;23.13;9.05;;;15.10;82.80;;;;;;5012636;28;20070;-65
2022/05/05 09:03:24;;;;;;;17.88;8.52;;;15.20;81.30;;;;;;5013677;28;20030;-65
2022/05/05 09:05:52;;;;;;;14.50;7.32;;;15.10;81.20;;;;;;5013743;28;20040;-64
2022/05/05 09:08:33;;;;;;;15.10;7.22;;;15.20;81.70;;;;;;5013425;28;20038;-65
2022/05/05 09:11:05;;;;;;;19.35;7.60;;;15.20;82.00;;;;;;5013721;28;20026;-66
2022/05/05 09:13:34;;;;;;;17.90;7.40;;;15.30;81.40;;;;;;5013491;28;20056;-66
2022/05/05 09:16:03;;;;;;;18.75;7.90;;;15.30;81.20;;;;;;5013443;28;20092;-66
2022/05/05 09:18:32;;;;;;;15.70;8.07;;;15.30;80.70;;;;;;5013022;28;20060;-65
2022/05/05 09:20:59;;;;;;;;;;;15.30;80.40;;;;;;5013821;28;20037;-66
2022/05/05 09:23:31;;;;;;;22.80;10.18;;;15.30;80.00;;;;;;5013446;28;19972;-65
2022/05/05 09:25:59;;;;;;;19.42;9.32;;;15.40;80.10;;;;;;4995567;28;20058;-65
2022/05/05 09:28:28;;;;;;;17.00;8.65;;;15.50;79.50;;;;;;5013131;28;20483;-65
2022/05/05 09:30:55;;;;;;;17.67;9.43;;;15.50;79.30;;;;;;5013266;28;20034;-67
2022/05/05 09:33:33;;;;;;;19.15;9.27;;;15.50;79.70;;;;;;5013123;28;20042;-65
2022/05/05 09:36:09;;;;;;;20.23;9.32;;;15.60;80.20;;;;;;5013139;28;20482;-66
2022/05/05 09:38:53;;;;;;;17.55;9.23;;;15.60;80.60;;;;;;5012988;28;20145;-67
2022/05/05 09:41:28;;;;;;;16.15;8.88;;;15.70;80.10;;;;;;5013329;28;20394;-66
2022/05/05 09:44:00;;;;;;;22.38;9.45;;;15.70;80.00;;;;;;5013129;28;20393;-66
2022/05/05 09:46:26;;;;;;;19.80;9.32;;;15.80;80.20;;;;;;5012838;28;20034;-66
2022/05/05 09:49:16;;;;;;;20.63;9.00;;;15.80;80.00;;;;;;5013075;28;20049;-66
2022/05/05 09:57:41;;;;;;;20.30;8.70;;;16.10;78.40;;;;;;5012523;28;20148;-66
2022/05/05 10:00:43;;;;;;;18.25;8.90;;;16.10;78.20;;;;;;5012639;28;20041;-65
2022/05/05 10:05:58;;;;;;;18.10;8.77;;;16.20;78.50;;;;;;5012514;28;20057;-65
2022/05/05 10:08:38;;;;;;;16.80;7.85;;;16.20;78.80;;;;;;5012293;28;20022;-65
2022/05/05 10:11:06;;;;;;;17.58;8.63;;;16.20;78.80;;;;;;5012357;28;20453;-65
2022/05/05 10:13:37;;;;;;;18.50;9.02;;;16.20;78.90;;;;;;5012408;28;20032;-64
2022/05/05 10:16:08;;;;;;;16.48;8.32;;;16.20;78.70;;;;;;5012231;28;20546;-65
2022/05/05 10:18:38;;;;;;;15.70;7.95;;;16.20;78.70;;;;;;5012077;28;20034;-64
2022/05/05 10:21:30;;;;;;;23.38;10.20;;;16.30;79.20;;;;;;5012135;28;20388;-65
2022/05/05 10:24:11;;;;;;;22.10;9.95;;;16.40;77.30;;;;;;4977012;28;20556;-65
2022/05/05 10:26:38;;;;;;;17.05;9.40;;;16.40;77.30;;;;;;4994421;28;20034;-65
2022/05/05 10:29:04;;;;;;;17.45;9.20;;;16.50;77.40;;;;;;4994507;28;20033;-65
2022/05/05 10:31:30;;;;;;;19.58;9.93;;;16.50;77.40;;;;;;5011969;28;20386;-65
2022/05/05 10:34:01;;;;;;;22.70;10.30;;;16.50;77.80;;;;;;5012194;28;20026;-65
2022/05/05 10:36:30;;;;;;;17.75;9.25;;;16.50;78.60;;;;;;5011875;28;20025;-65
2022/05/05 10:38:57;;;;;;;21.83;11.23;;;16.50;79.00;;;;;;5011966;28;20029;-65
2022/05/05 10:41:41;;;;;;;23.55;11.38;;;16.50;77.80;;;;;;5011855;28;20479;-65
2022/05/05 10:44:16;;;;;;;24.88;11.43;;;16.50;77.90;;;;;;5011828;28;20057;-65
2022/05/05 10:47:00;;;;;;;22.00;11.55;;;16.50;78.40;;;;;;5011535;28;20525;-65
2022/05/05 10:49:39;;;;;;;20.65;11.00;;;16.60;78.40;;;;;;5011757;28;20053;-65
2022/05/05 10:52:08;;;;;;;17.05;9.50;;;16.60;78.50;;;;;;5011814;28;20026;-66
2022/05/05 10:54:34;;;;;;;;;;;16.50;78.80;;;;;;5012234;28;20507;-65
2022/05/05 10:57:25;;;;;;;19.33;10.30;;;16.60;78.90;;;;;;5011545;28;20298;-65
2022/05/05 11:00:07;;;;;;;21.02;11.35;;;16.50;78.30;;;;;;5011401;28;20105;-65
2022/05/05 11:02:34;;;;;;;19.33;10.35;;;16.50;78.50;;;;;;5011526;28;20052;-65
2022/05/05 11:05:36;;;;;;;17.67;9.77;;;16.50;78.30;;;;;;5011480;28;20030;-65
2022/05/05 11:10:46;;;;;;;29.27;12.57;;;16.50;80.40;;;;;;5011452;28;20026;-65
2022/05/05 11:13:31;;;;;;;;;;;16.50;80.70;;;;;;5011791;28;20029;-65
2022/05/05 11:22:24;;;;;;;26.40;12.55;;;16.60;80.90;;;;;;5011131;28;20494;-65
2022/05/05 11:24:52;;;;;;;23.77;11.95;;;16.60;81.00;;;;;;4993407;28;20502;-65
2022/05/05 11:27:21;;;;;;;25.95;13.30;;;16.60;80.90;;;;;;5011211;28;20394;-65
2022/05/05 11:29:51;;;;;;;21.60;13.02;;;16.70;80.50;;;;;;5011036;28;20026;-65
2022/05/05 11:32:18;;;;;;;24.00;12.52;;;16.70;80.80;;;;;;5011591;28;20029;-65
2022/05/05 11:34:46;;;;;;;26.92;12.80;;;16.80;80.70;;;;;;5011298;28;20033;-65
2022/05/05 11:37:12;;;;;;;22.65;13.00;;;16.80;79.70;;;;;;5011125;28;20084;-66
2022/05/05 11:39:39;;;;;;;24.75;11.95;;;16.80;79.40;;;;;;5011382;28;20112;-65
2022/05/05 11:42:07;;;;;;;27.40;12.73;;;16.80;79.70;;;;;;5010960;28;20030;-65
2022/05/05 11:44:41;;;;;;;24.10;12.73;;;16.90;79.30;;;;;;5011047;28;20064;-65
2022/05/05 11:47:18;;;;;;;29.10;13.15;;;17.00;78.10;;;;;;5034311;23;20422;-83
2022/05/05 11:49:50;;;;;;;23.67;11.90;;;17.10;77.80;;;;;;5010772;28;20033;-83
2022/05/05 11:52:17;;;;;;;27.50;13.85;;;17.20;78.30;;;;;;4993118;28;20414;-83
2022/05/05 11:54:55;;;;;;;22.73;12.50;;;17.20;77.30;;;;;;5009550;28;20036;-83
2022/05/05 11:57:50;;;;;;;23.63;13.00;;;17.20;76.80;;;;;;4993228;28;20300;-83
2022/05/05 12:03:03;;;;;;;19.58;11.35;;;17.30;76.30;;;;;;5010501;28;20042;-83
2022/05/05 12:05:29;;;;;;;21.88;11.65;;;17.30;76.70;;;;;;5010598;28;20109;-83
2022/05/05 12:07:56;;;;;;;21.60;11.95;;;17.30;76.40;;;;;;5010400;28;20460;-83
2022/05/05 12:10:33;;;;;;;18.15;10.18;;;17.20;75.30;;;;;;5010547;28;20030;-83
2022/05/05 12:13:01;;;;;;;17.90;9.93;;;17.20;75.80;;;;;;5010496;28;20061;-83
2022/05/05 12:15:27;;;;;;;18.05;10.27;;;17.20;76.40;;;;;;4992986;28;20030;-83
2022/05/05 12:17:57;;;;;;;20.20;12.05;;;17.10;76.00;;;;;;4992502;28;20034;-83
2022/05/05 12:20:24;;;;;;;18.20;10.82;;;17.20;77.30;;;;;;4992848;28;20061;-83
2022/05/05 12:23:00;;;;;;;28.00;11.13;;;17.20;76.10;;;;;;5010536;28;20061;-83
2022/05/05 12:25:28;;;;;;;23.58;11.13;;;17.20;76.20;;;;;;5010273;28;20113;-83
2022/05/05 12:28:00;;;;;;;19.65;10.32;;;17.20;75.90;;;;;;5010160;28;20401;-83
2022/05/05 12:30:33;;;;;;;16.55;8.82;;;17.10;75.50;;;;;;5010574;28;20096;-83
2022/05/05 12:32:59;;;;;;;16.95;9.13;;;17.10;75.60;;;;;;5010390;28;20034;-83
2022/05/05 12:35:30;;;;;;;15.65;8.45;;;17.00;75.90;;;;;;5012915;28;20100;-83
2022/05/05 12:37:58;;;;;;;17.60;9.05;;;17.00;76.20;;;;;;5013651;28;20026;-83
2022/05/05 12:40:23;;;;;;;13.30;7.45;;;17.10;76.30;;;;;;5014020;28;20085;-83
2022/05/05 12:43:06;;;;;;;14.50;7.05;;;17.10;76.10;;;;;;5013522;28;20061;-83
2022/05/05 12:45:33;;;;;;;11.48;6.50;;;17.20;74.30;;;;;;4996252;28;20069;-83
2022/05/05 12:48:03;;;;;;;12.55;6.85;;;17.40;73.30;;;;;;5013306;28;20030;-83
2022/05/05 12:50:40;;;;;;;18.80;7.97;;;17.60;72.20;;;;;;5013631;28;20041;-83
2022/05/05 13:01:28;;;;;;;13.25;6.78;;;18.10;69.90;;;;;;5013387;28;20037;-83
2022/05/05 13:03:55;;;;;;;16.17;7.25;;;18.00;70.40;;;;;;5013367;28;20080;-83
2022/05/05 13:06:25;;;;;;;13.32;6.93;;;17.90;71.40;;;;;;4995805;28;20030;-83
2022/05/05 13:08:52;;;;;;;13.77;7.05;;;17.80;71.90;;;;;;5013391;28;20045;-83
2022/05/05 13:11:18;;;;;;;12.38;6.25;;;17.90;72.50;;;;;;5013429;28;20157;-83
2022/05/05 13:13:45;;;;;;;13.25;7.35;;;18.00;71.00;;;;;;5013209;28;20030;-83
2022/05/05 13:16:11;;;;;;;13.45;7.80;;;18.10;71.40;;;;;;4995513;28;20038;-83
2022/05/05 13:18:38;;;;;;;14.45;8.20;;;18.10;72.00;;;;;;5013069;28;20109;-83
2022/05/05 13:21:06;;;;;;;14.52;7.70;;;18.20;71.80;;;;;;5013187;28;20586;-83
2022/05/05 13:23:32;;;;;;;16.33;7.25;;;18.20;71.30;;;;;;5012801;28;20030;-83
2022/05/05 13:25:58;;;;;;;15.13;7.68;;;18.30;71.20;;;;;;5012949;28;20557;-83
2022/05/05 13:28:24;;;;;;;15.70;7.93;;;18.30;70.70;;;;;;4995328;28;20061;-83
2022/05/05 13:30:50;;;;;;;17.63;7.20;;;18.20;71.00;;;;;;4995487;28;20470;-83
2022/05/05 13:33:16;;;;;;;13.75;6.82;;;18.20;71.00;;;;;;5012706;28;20033;-83